Latest Weather Observations for Holsworthy

IDN60901

Issued at 6:51 pm EST Saturday 23 September 2017 (issued every 10 minutes, with the page automatically refreshed every 10 minutes)

About weather observations | Map of Sydney area stations | Latest observations for Sydney area | Other Formats
Station Details ID: 066161 Name: HOLSWORTHY AERODROME AWS Lat: -33.99 Lon: 150.95 Height: 68.16 m
Data from the previous 72 hours. | See also: Recent months at Holsworthy
Date/Time
EST
Temp
°C
App
Temp
°C
Dew
Point
°C
Rel
Hum
%
Delta-T
°C
Wind Press
QNH
hPa
Press
MSL
hPa
Rain since
9am
mm
Dir  Spd
km/h
Gust
km/h
Spd
kts
Gust
kts
23/06:30pm 31.4 26.6 -2.6 11 15.7 NW 13 20 7 11 1000.9 1000.8 0.0
23/06:00pm 32.3 26.3 -3.2 10 16.4 NNW 19 32 10 17 1000.8 1000.7 0.0
23/05:30pm 33.4 27.9 -2.3 10 16.8 NNW 17 24 9 13 1000.6 1000.5 0.0
23/05:00pm 34.6 29.0 -2.9 9 17.8 NNW 17 30 9 16 1000.5 1000.4 0.0
23/04:30pm 35.6 29.3 -3.7 8 18.4 NNW 20 35 11 19 1000.3 1000.2 0.0
23/04:00pm 35.2 28.5 -4.0 8 18.3 NNW 22 35 12 19 1000.3 1000.2 0.0
23/03:30pm 34.8 30.1 1.2 12 16.9 NNE 15 22 8 12 1000.5 1000.4 0.0
23/03:00pm 34.0 28.1 -0.6 11 16.9 N 20 32 11 17 1000.9 1000.8 0.0
23/02:30pm 34.7 28.3 -1.4 10 17.4 N 22 37 12 20 1001.3 1001.2 0.0
23/02:00pm 34.7 28.3 -1.4 10 17.5 N 22 33 12 18 1001.9 1001.8 0.0
23/01:30pm 34.4 28.4 0.9 12 16.8 N 22 32 12 17 1002.4 1002.3 0.0
23/01:00pm 32.7 27.6 0.7 13 15.9 NNE 17 30 9 16 1003.2 1003.1 0.0
23/12:30pm 29.9 24.8 0.5 15 14.2 N 17 24 9 13 1004.4 1004.3 0.0
23/12:00pm 27.9 23.7 1.4 18 12.9 N 13 17 7 9 1005.0 1004.9 0.0
23/11:30am 26.4 23.2 3.0 22 11.5 N 9 13 5 7 1006.2 1006.1 0.0
23/11:00am 27.1 22.9 3.6 22 11.8 N 15 22 8 12 1006.8 1006.7 0.0
23/10:30am 24.7 21.0 4.5 27 10.1 N 13 19 7 10 1007.4 1007.3 0.0
23/10:00am 22.0 19.3 5.8 35 8.2 NW 9 13 5 7 1008.0 1007.9 0.0
23/09:30am 19.7 17.2 5.0 38 7.2 NW 7 11 4 6 1008.6 1008.5 0.0
23/09:00am 19.1 16.2 4.5 38 7.0 W 9 13 5 7 1009.0 1008.9 0.0
23/08:30am 17.6 14.7 4.6 42 6.2 WSW 9 11 5 6 1009.6 1009.6 0.0
23/08:00am 17.4 14.8 4.4 42 6.2 W 7 9 4 5 1009.4 1009.4 0.0
23/07:30am 16.0 13.6 7.2 56 4.4 WSW 9 13 5 7 1009.5 1009.5 0.0
23/07:00am 16.5 13.6 4.5 45 5.7 WSW 9 13 5 7 1009.4 1009.4 0.0
23/06:30am 16.3 13.4 4.4 45 5.6 WSW 9 13 5 7 1009.3 1009.2 0.0
23/06:00am 12.0 9.2 5.0 62 3.2 SW 9 11 5 6 1009.3 1009.2 0.0
23/05:30am 10.4 7.9 5.0 69 2.5 SW 7 9 4 5 1009.3 1009.2 0.0
23/05:00am 10.9 8.4 5.0 67 2.7 SW 7 11 4 6 1009.2 1009.1 0.0
23/04:30am 11.2 8.7 4.9 65 2.9 WSW 7 11 4 6 1009.5 1009.5 0.0
23/04:00am 10.5 9.0 5.1 69 2.5 SW 2 7 1 4 1009.6 1009.6 0.0
23/03:30am 11.0 9.1 5.1 67 2.7 W 4 7 2 4 1009.6 1009.6 0.0
23/03:00am 11.9 10.8 5.3 64 3.1 CALM 0 0 0 0 1009.7 1009.7 0.0
23/02:30am 12.6 11.7 6.0 64 3.1 CALM 0 0 0 0 1009.8 1009.8 0.0
23/02:00am 14.7 12.0 5.5 54 4.4 SW 9 11 5 6 1010.0 1010.0 0.0
23/01:30am 13.6 10.5 5.7 59 3.7 WSW 11 13 6 7 1010.5 1010.5 0.0
23/01:00am 14.5 11.1 5.8 56 4.2 WSW 13 15 7 8 1010.5 1010.5 0.0
23/12:30am 14.9 11.3 6.7 58 4.0 SW 15 20 8 11 1010.9 1010.9 0.0
23/12:00am 14.7 12.1 7.7 63 3.5 SW 11 17 6 9 1010.8 1010.8 0.0
 
Date/Time
EST
Temp
°C
App
Temp
°C
Dew
Point
°C
Rel
Hum
%
Delta-T
°C
Wind Press
QNH
hPa
Press
MSL
hPa
Rain since
9am
mm
Dir  Spd
km/h
Gust
km/h
Spd
kts
Gust
kts
22/11:30pm 12.8 11.0 7.0 68 2.8 WSW 6 9 3 5 1010.9 1010.9 0.0
22/11:00pm 13.6 11.7 7.4 66 3.0 WSW 7 9 4 5 1010.9 1010.9 0.0
22/10:30pm 15.7 14.0 7.7 59 4.0 S 6 9 3 5 1010.7 1010.7 0.0
22/10:00pm 17.8 16.2 8.6 55 4.8 S 7 11 4 6 1011.1 1011.1 0.0
22/09:30pm 17.5 15.1 8.6 56 4.6 SW 11 15 6 8 1011.6 1011.6 0.0
22/09:00pm 17.9 15.9 7.3 50 5.4 SSE 7 11 4 6 1011.4 1011.4 0.0
22/08:30pm 20.2 18.2 8.5 47 6.1 ESE 9 11 5 6 1011.3 1011.3 0.0
22/08:00pm 20.1 17.6 8.1 46 6.2 ESE 11 15 6 8 1011.1 1011.1 0.0
22/07:30pm 20.9 18.1 6.8 40 7.2 ESE 11 15 6 8 1011.1 1011.1 0.0
22/07:00pm 21.5 18.3 3.2 30 8.7 ESE 9 13 5 7 1010.8 1010.8 0.0
22/06:30pm 23.3 19.7 2.7 26 9.9 E 11 15 6 8 1010.5 1010.5 0.0
22/06:00pm 24.2 20.8 1.8 23 10.6 ESE 9 11 5 6 1010.3 1010.3 0.0
22/05:30pm 25.8 21.9 1.2 20 11.7 E 11 15 6 8 1009.9 1009.9 0.0
22/05:00pm 27.1 22.6 0.0 17 12.7 E 13 17 7 9 1009.8 1009.8 0.0
22/04:30pm 28.1 23.3 -0.1 16 13.3 E 15 19 8 10 1009.5 1009.5 0.0
22/04:00pm 28.7 23.8 -0.5 15 13.8 E 15 20 8 11 1009.4 1009.4 0.0
22/03:30pm 29.9 24.8 -5.0 10 15.3 NNE 13 20 7 11 1009.5 1009.5 0.0
22/03:00pm 29.8 25.5 -5.1 10 15.3 NNE 9 15 5 8 1009.7 1009.7 0.0
22/02:30pm 29.6 25.3 -5.2 10 15.2 NNE 9 17 5 9 1009.9 1009.9 0.0
22/02:00pm 28.8 24.4 -5.8 10 14.8 N 9 15 5 8 1010.3 1010.3 0.0
22/01:30pm 29.5 25.2 -5.3 10 15.1 NE 9 13 5 7 1010.4 1010.4 0.0
22/01:00pm 28.6 23.4 -6.0 10 14.8 WNW 13 20 7 11 1011.1 1011.1 0.0
22/12:30pm 28.0 22.8 -6.4 10 14.5 NNW 13 20 7 11 1011.5 1011.5 0.0
22/12:00pm 27.3 22.5 -2.5 14 13.4 NNE 13 19 7 10 1011.9 1011.9 0.0
22/11:30am 26.2 21.9 0.8 19 12.0 NNE 13 19 7 10 1012.6 1012.6 0.0
22/11:00am 24.2 19.9 1.2 22 10.8 NNE 13 17 7 9 1013.2 1013.2 0.0
22/10:30am 23.3 20.0 2.7 26 9.9 N 9 17 5 9 1013.7 1013.7 0.0
22/10:00am 21.2 17.6 3.0 30 8.6 NNE 11 15 6 8 1014.0 1014.0 0.0
22/09:30am 20.1 17.1 4.2 35 7.7 NNW 9 13 5 7 1014.6 1014.5 0.0
22/09:00am 17.9 15.3 6.1 46 5.8 N 9 13 5 7 1014.7 1014.6 0.0
22/08:30am 15.8 13.7 6.8 55 4.4 N 7 11 4 6 1014.7 1014.6 0.0
22/08:00am 13.7 11.8 7.5 66 3.0 WNW 7 11 4 6 1014.7 1014.6 0.0
22/07:30am 10.9 9.0 7.6 80 1.6 W 7 9 4 5 1014.5 1014.4 0.0
22/07:00am 10.1 8.5 8.7 91 0.7 SSW 7 11 4 6 1014.2 1014.2 0.0
22/06:30am 7.7 5.7 7.0 95 0.3 WSW 7 9 4 5 1014.1 1014.1 0.0
22/06:00am 6.8 5.8 5.7 93 0.5 CALM 0 0 0 0 1013.8 1013.8 0.0
22/05:30am 7.1 6.2 6.0 93 0.5 CALM 0 0 0 0 1013.7 1013.7 0.0
22/05:00am 7.7 5.8 6.8 94 0.4 WSW 6 7 3 4 1013.3 1013.3 0.0
22/04:30am 8.0 7.3 6.9 93 0.5 CALM 0 0 0 0 1013.0 1013.0 0.0
22/04:00am 7.9 5.4 6.5 91 0.6 WSW 9 11 5 6 1012.8 1012.8 0.0
22/03:30am 8.2 5.8 7.1 93 0.5 WSW 9 13 5 7 1012.7 1012.7 0.0
22/03:00am 8.5 6.3 7.7 95 0.4 WSW 9 11 5 6 1012.8 1012.8 0.0
22/02:30am 8.4 6.6 7.3 93 0.5 WSW 6 9 3 5 1012.9 1012.9 0.0
22/02:00am 8.7 6.5 7.8 94 0.4 SW 9 11 5 6 1013.0 1013.0 0.0
22/01:30am 8.7 6.8 7.5 92 0.6 WSW 7 9 4 5 1013.3 1013.3 0.0
22/01:00am 8.8 6.5 7.6 92 0.6 WSW 9 13 5 7 1013.5 1013.5 0.0
22/12:30am 9.5 7.9 7.8 89 0.8 SW 6 7 3 4 1013.5 1013.5 0.0
22/12:00am 10.7 10.4 8.8 88 0.9 CALM 0 0 0 0 1013.6 1013.6 0.0
 
Date/Time
EST
Temp
°C
App
Temp
°C
Dew
Point
°C
Rel
Hum
%
Delta-T
°C
Wind Press
QNH
hPa
Press
MSL
hPa
Rain since
9am
mm
Dir  Spd
km/h
Gust
km/h
Spd
kts
Gust
kts
21/11:30pm 11.7 11.6 9.4 86 1.2 CALM 0 0 0 0 1013.5 1013.5 0.0
21/11:00pm 12.1 12.0 9.5 84 1.3 CALM 0 0 0 0 1013.5 1013.5 0.0
21/10:30pm 12.8 11.7 9.8 82 1.5 S 6 6 3 3 1013.4 1013.4 0.0
21/10:00pm 13.7 13.9 10.5 81 1.7 CALM 0 0 0 0 1013.7 1013.7 0.0
21/09:30pm 13.1 11.5 10.1 82 1.6 SSW 9 11 5 6 1013.7 1013.7 0.0
21/09:00pm 14.1 12.3 10.9 81 1.7 SW 11 13 6 7 1013.7 1013.7 0.0
21/08:30pm 16.3 15.0 11.2 72 2.7 ESE 9 11 5 6 1013.6 1013.6 0.0
21/08:00pm 16.4 14.4 11.6 73 2.6 SE 13 13 7 7 1013.6 1013.6 0.0
21/07:30pm 16.5 14.8 11.2 71 2.9 SE 11 13 6 7 1013.5 1013.5 0.0
21/07:00pm 17.1 15.3 10.7 66 3.4 SE 11 13 6 7 1013.3 1013.3 0.0
21/06:30pm 18.6 17.1 10.4 59 4.4 ESE 9 13 5 7 1012.9 1012.9 0.0
21/06:00pm 19.7 17.6 9.9 53 5.3 E 11 15 6 8 1012.5 1012.5 0.0
21/05:30pm 20.9 18.7 9.5 48 6.1 E 11 17 6 9 1012.0 1012.0 0.0
21/05:00pm 22.1 19.5 9.3 44 6.9 E 13 19 7 10 1011.9 1011.9 0.0
21/04:30pm 22.8 19.8 9.2 42 7.3 E 15 22 8 12 1011.7 1011.7 0.0
21/04:00pm 23.5 20.4 10.2 43 7.3 E 17 22 9 12 1011.7 1011.7 0.0
21/03:30pm 24.4 21.1 9.6 39 8.1 E 17 20 9 11 1011.8 1011.8 0.0
21/03:00pm 24.8 22.0 9.9 39 8.2 E 15 22 8 12 1011.9 1011.9 0.0
21/02:30pm 25.8 23.0 6.9 30 9.9 ENE 11 19 6 10 1011.9 1011.9 0.0
21/02:00pm 25.3 21.7 2.7 23 11.0 NNE 11 19 6 10 1012.3 1012.3 0.0
21/01:30pm 24.9 21.7 3.0 24 10.7 N 9 15 5 8 1012.8 1012.8 0.0
21/01:00pm 23.5 20.6 4.9 30 9.3 NNE 9 17 5 9 1013.5 1013.5 0.0
21/12:30pm 22.7 19.4 4.7 31 8.9 N 11 17 6 9 1014.0 1014.0 0.0
21/12:00pm 22.1 19.6 6.7 37 7.9 NNE 9 15 5 8 1014.4 1014.3 0.0
21/11:30am 20.7 18.5 7.7 43 6.7 NNE 9 15 5 8 1015.1 1015.0 0.0
21/11:00am 20.1 18.0 8.1 46 6.2 NW 9 13 5 7 1015.6 1015.5 0.0
21/10:30am 19.2 17.5 8.5 50 5.6 W 7 9 4 5 1016.1 1016.0 0.0
21/10:00am 17.4 15.8 8.8 57 4.4 NW 7 11 4 6 1016.6 1016.5 0.0
21/09:30am 16.2 14.3 9.2 63 3.6 WSW 9 13 5 7 1016.7 1016.6 0.0
21/09:00am 14.6 12.5 8.3 66 3.2 NW 9 11 5 6 1016.9 1016.8 0.0
21/08:30am 12.7 11.0 8.4 75 2.1 W 7 11 4 6 1017.1 1017.0 0.0
21/08:00am 10.4 8.7 8.2 86 1.1 WNW 7 11 4 6 1017.4 1017.3 0.0
21/07:30am 8.3 6.4 6.9 91 0.7 W 6 7 3 4 1017.4 1017.3 0.0
21/07:00am 6.9 4.7 6.2 95 0.3 WSW 7 9 4 5 1017.4 1017.3 0.0
21/06:30am 5.6 3.3 5.0 96 0.3 W 6 7 3 4 1017.3 1017.2 0.0
21/06:00am 5.3 3.0 4.6 95 0.3 WSW 6 6 3 3 1017.0 1016.9 0.0
21/05:30am 5.5 3.2 4.8 95 0.3 WSW 6 7 3 4 1016.9 1016.8 0.0
21/05:00am 5.5 3.0 4.8 95 0.3 WSW 7 7 4 4 1017.1 1017.0 0.0
21/04:30am 5.4 2.9 4.7 95 0.3 WSW 7 7 4 4 1016.9 1016.8 0.0
21/04:00am 5.5 3.5 4.5 93 0.4 SW 4 7 2 4 1016.8 1016.7 0.0
21/03:30am 5.4 3.0 4.2 92 0.5 WSW 6 6 3 3 1016.9 1016.8 0.0
21/03:00am 5.9 4.3 4.4 90 0.6 WSW 2 7 1 4 1016.8 1016.7 0.0
21/02:30am 6.6 5.6 5.6 93 0.4 CALM 0 0 0 0 1016.8 1016.7 0.0
21/02:00am 7.2 6.1 5.3 88 0.8 CALM 0 4 0 2 1017.2 1017.1 0.0
21/01:30am 8.4 6.9 6.9 90 0.7 SSE 4 6 2 3 1017.6 1017.5 0.0
21/01:00am 8.8 7.0 7.3 90 0.7 SSE 6 6 3 3 1017.8 1017.7 0.0
21/12:30am 9.1 7.2 7.4 89 0.8 SSE 7 7 4 4 1018.2 1018.1 0.0
21/12:00am 8.9 7.6 7.5 91 0.7 SE 4 6 2 3 1018.4 1018.3 0.0
 
Date/Time
EST
Temp
°C
App
Temp
°C
Dew
Point
°C
Rel
Hum
%
Delta-T
°C
Wind Press
QNH
hPa
Press
MSL
hPa
Rain since
9am
mm
Dir  Spd
km/h
Gust
km/h
Spd
kts
Gust
kts
20/11:30pm 8.6 7.0 6.4 86 1.0 SE 4 6 2 3 1018.5 1018.4 0.0
20/11:00pm 10.1 8.5 7.9 86 1.1 SE 6 7 3 4 1018.5 1018.4 0.0
20/10:30pm 10.4 8.8 8.0 85 1.2 SE 6 7 3 4 1018.9 1018.8 0.0
20/10:00pm 11.2 9.2 8.8 85 1.2 SSE 9 11 5 6 1019.2 1019.1 0.0
20/09:30pm 11.8 9.9 9.2 84 1.3 SSE 9 11 5 6 1019.2 1019.1 0.0
20/09:00pm 11.7 10.1 8.9 83 1.4 SSE 7 9 4 5 1019.1 1019.0 0.0
20/08:30pm 13.0 11.8 10.2 83 1.5 SE 7 9 4 5 1018.9 1018.8 0.0
20/08:00pm 11.4 10.8 7.5 77 1.9 CALM 0 0 0 0 1018.9 1018.8 0.0
20/07:30pm 13.6 12.1 9.1 74 2.3 SE 7 9 4 5 1018.6 1018.5 0.0
20/07:00pm 14.1 12.3 9.3 73 2.5 E 9 11 5 6 1018.2 1018.1 0.0

Latest Capital City Observations: Canberra | Sydney | Melbourne | Brisbane | Adelaide | Perth | Hobart | Darwin

Other Formats:

Comma delimited format used in spreadsheet applications
http://www.bom.gov.au/fwo/IDN60901/IDN60901.95761.axf

JavaScript Object Notation format (JSON) in row-major order
http://www.bom.gov.au/fwo/IDN60901/IDN60901.95761.json